sensor_id;sensor_type;location;lat;lon;timestamp;pressure;altitude;pressure_sealevel;temperature
70050;BMP180;57391;51.306;22.680;2023-10-13T00:00:34;99717.00;;;14.30
70050;BMP180;57391;51.306;22.680;2023-10-13T00:03:26;99712.20;;;14.30
70050;BMP180;57391;51.306;22.680;2023-10-13T00:05:58;99713.20;;;14.30
70050;BMP180;57391;51.306;22.680;2023-10-13T00:08:29;99717.60;;;14.28
70050;BMP180;57391;51.306;22.680;2023-10-13T00:10:56;99723.60;;;14.20
70050;BMP180;57391;51.306;22.680;2023-10-13T00:13:27;99726.40;;;14.20
70050;BMP180;57391;51.306;22.680;2023-10-13T00:15:55;99733.80;;;14.10
70050;BMP180;57391;51.306;22.680;2023-10-13T00:18:31;99734.60;;;14.10
70050;BMP180;57391;51.306;22.680;2023-10-13T00:21:02;99739.60;;;14.10
70050;BMP180;57391;51.306;22.680;2023-10-13T00:23:44;99739.80;;;14.20
70050;BMP180;57391;51.306;22.680;2023-10-13T00:26:21;99735.80;;;14.20
70050;BMP180;57391;51.306;22.680;2023-10-13T00:28:59;99746.20;;;14.20
70050;BMP180;57391;51.306;22.680;2023-10-13T00:31:46;99737.60;;;14.20
70050;BMP180;57391;51.306;22.680;2023-10-13T00:34:14;99742.60;;;14.20
70050;BMP180;57391;51.306;22.680;2023-10-13T00:36:59;99739.40;;;14.20
70050;BMP180;57391;51.306;22.680;2023-10-13T00:39:44;99737.80;;;14.20
70050;BMP180;57391;51.306;22.680;2023-10-13T00:42:13;99739.00;;;14.20
70050;BMP180;57391;51.306;22.680;2023-10-13T00:44:57;99747.00;;;14.20
70050;BMP180;57391;51.306;22.680;2023-10-13T00:47:24;99752.40;;;14.20
70050;BMP180;57391;51.306;22.680;2023-10-13T00:50:07;99747.00;;;14.20
70050;BMP180;57391;51.306;22.680;2023-10-13T00:52:38;99748.80;;;14.20
70050;BMP180;57391;51.306;22.680;2023-10-13T00:55:08;99745.00;;;14.20
70050;BMP180;57391;51.306;22.680;2023-10-13T00:57:37;99749.40;;;14.20
70050;BMP180;57391;51.306;22.680;2023-10-13T01:00:07;99751.80;;;14.20
70050;BMP180;57391;51.306;22.680;2023-10-13T01:02:53;99752.60;;;14.20
70050;BMP180;57391;51.306;22.680;2023-10-13T01:05:25;99748.00;;;14.20
70050;BMP180;57391;51.306;22.680;2023-10-13T01:07:52;99742.20;;;14.18
70050;BMP180;57391;51.306;22.680;2023-10-13T01:10:22;99741.80;;;14.12
70050;BMP180;57391;51.306;22.680;2023-10-13T01:12:54;99748.60;;;14.10
70050;BMP180;57391;51.306;22.680;2023-10-13T01:15:21;99753.80;;;14.10
70050;BMP180;57391;51.306;22.680;2023-10-13T01:17:49;99756.60;;;14.10
70050;BMP180;57391;51.306;22.680;2023-10-13T01:20:16;99755.40;;;14.10
70050;BMP180;57391;51.306;22.680;2023-10-13T01:22:52;99759.60;;;14.10
70050;BMP180;57391;51.306;22.680;2023-10-13T01:25:24;99760.20;;;14.00
70050;BMP180;57391;51.306;22.680;2023-10-13T01:27:54;99767.60;;;14.00
70050;BMP180;57391;51.306;22.680;2023-10-13T01:30:21;99766.60;;;14.00
70050;BMP180;57391;51.306;22.680;2023-10-13T01:32:53;99769.00;;;14.00
70050;BMP180;57391;51.306;22.680;2023-10-13T01:35:26;99775.80;;;13.98
70050;BMP180;57391;51.306;22.680;2023-10-13T01:38:03;99774.20;;;13.90
70050;BMP180;57391;51.306;22.680;2023-10-13T01:40:29;99775.40;;;13.90
70050;BMP180;57391;51.306;22.680;2023-10-13T01:43:00;99772.00;;;13.90
70050;BMP180;57391;51.306;22.680;2023-10-13T01:45:27;99769.60;;;13.90
70050;BMP180;57391;51.306;22.680;2023-10-13T01:47:57;99764.20;;;13.90
70050;BMP180;57391;51.306;22.680;2023-10-13T01:50:24;99763.60;;;13.80
70050;BMP180;57391;51.306;22.680;2023-10-13T01:53:00;99760.60;;;13.80
70050;BMP180;57391;51.306;22.680;2023-10-13T01:55:41;99755.60;;;13.70
70050;BMP180;57391;51.306;22.680;2023-10-13T01:58:13;99760.40;;;13.62
70050;BMP180;57391;51.306;22.680;2023-10-13T02:00:45;99757.60;;;13.50
70050;BMP180;57391;51.306;22.680;2023-10-13T02:03:14;99756.60;;;13.44
70050;BMP180;57391;51.306;22.680;2023-10-13T02:05:47;99752.60;;;13.40
70050;BMP180;57391;51.306;22.680;2023-10-13T02:08:21;99751.60;;;13.30
70050;BMP180;57391;51.306;22.680;2023-10-13T02:10:53;99755.80;;;13.30
70050;BMP180;57391;51.306;22.680;2023-10-13T02:13:23;99758.40;;;13.28
70050;BMP180;57391;51.306;22.680;2023-10-13T02:15:56;99759.80;;;13.20
70050;BMP180;57391;51.306;22.680;2023-10-13T02:18:24;99759.00;;;13.20
70050;BMP180;57391;51.306;22.680;2023-10-13T02:20:56;99770.00;;;13.20
70050;BMP180;57391;51.306;22.680;2023-10-13T02:23:24;99775.60;;;13.20
70050;BMP180;57391;51.306;22.680;2023-10-13T02:25:51;99776.80;;;13.20
70050;BMP180;57391;51.306;22.680;2023-10-13T02:28:28;99781.80;;;13.14
70050;BMP180;57391;51.306;22.680;2023-10-13T02:31:01;99784.80;;;13.10
70050;BMP180;57391;51.306;22.680;2023-10-13T02:33:31;99782.80;;;13.10
70050;BMP180;57391;51.306;22.680;2023-10-13T02:35:59;99785.60;;;13.10
70050;BMP180;57391;51.306;22.680;2023-10-13T02:38:33;99777.80;;;13.10
70050;BMP180;57391;51.306;22.680;2023-10-13T02:41:12;99780.00;;;13.10
70050;BMP180;57391;51.306;22.680;2023-10-13T02:43:45;99797.00;;;13.00
70050;BMP180;57391;51.306;22.680;2023-10-13T02:46:12;99807.20;;;13.00
70050;BMP180;57391;51.306;22.680;2023-10-13T02:48:43;99805.80;;;13.10
70050;BMP180;57391;51.306;22.680;2023-10-13T02:51:13;99800.40;;;13.10
70050;BMP180;57391;51.306;22.680;2023-10-13T02:53:46;99801.80;;;13.12
70050;BMP180;57391;51.306;22.680;2023-10-13T02:56:17;99799.60;;;13.20
70050;BMP180;57391;51.306;22.680;2023-10-13T02:58:52;99796.80;;;13.20
70050;BMP180;57391;51.306;22.680;2023-10-13T03:01:33;99803.40;;;13.30
70050;BMP180;57391;51.306;22.680;2023-10-13T03:04:03;99803.40;;;13.30
70050;BMP180;57391;51.306;22.680;2023-10-13T03:06:35;99813.60;;;13.40
70050;BMP180;57391;51.306;22.680;2023-10-13T03:09:07;99815.40;;;13.40
70050;BMP180;57391;51.306;22.680;2023-10-13T03:12:00;99813.20;;;13.42
70050;BMP180;57391;51.306;22.680;2023-10-13T03:14:27;99814.00;;;13.50
70050;BMP180;57391;51.306;22.680;2023-10-13T03:17:01;99816.80;;;13.50
70050;BMP180;57391;51.306;22.680;2023-10-13T03:19:29;99810.40;;;13.50
70050;BMP180;57391;51.306;22.680;2023-10-13T03:22:05;99812.80;;;13.50
70050;BMP180;57391;51.306;22.680;2023-10-13T03:24:44;99816.20;;;13.50
70050;BMP180;57391;51.306;22.680;2023-10-13T03:27:17;99816.20;;;13.50
70050;BMP180;57391;51.306;22.680;2023-10-13T03:29:46;99804.00;;;13.50
70050;BMP180;57391;51.306;22.680;2023-10-13T03:32:21;99809.00;;;13.50
70050;BMP180;57391;51.306;22.680;2023-10-13T03:34:47;99807.40;;;13.50
70050;BMP180;57391;51.306;22.680;2023-10-13T03:37:23;99797.80;;;13.50
70050;BMP180;57391;51.306;22.680;2023-10-13T03:40:12;99786.60;;;13.50
70050;BMP180;57391;51.306;22.680;2023-10-13T03:42:52;99787.00;;;13.50
70050;BMP180;57391;51.306;22.680;2023-10-13T03:45:39;99787.40;;;13.50
70050;BMP180;57391;51.306;22.680;2023-10-13T03:50:40;99786.40;;;13.40
70050;BMP180;57391;51.306;22.680;2023-10-13T03:53:14;99785.80;;;13.40
70050;BMP180;57391;51.306;22.680;2023-10-13T03:55:41;99784.20;;;13.40
70050;BMP180;57391;51.306;22.680;2023-10-13T03:58:15;99786.80;;;13.44
70050;BMP180;57391;51.306;22.680;2023-10-13T04:00:43;99786.60;;;13.46
70050;BMP180;57391;51.306;22.680;2023-10-13T04:03:11;99787.20;;;13.50
70050;BMP180;57391;51.306;22.680;2023-10-13T04:05:43;99785.80;;;13.50
70050;BMP180;57391;51.306;22.680;2023-10-13T04:08:28;99786.80;;;13.50
70050;BMP180;57391;51.306;22.680;2023-10-13T04:10:57;99778.40;;;13.50
70050;BMP180;57391;51.306;22.680;2023-10-13T04:13:24;99786.00;;;13.50
70050;BMP180;57391;51.306;22.680;2023-10-13T04:16:10;99787.20;;;13.50
70050;BMP180;57391;51.306;22.680;2023-10-13T04:18:51;99790.00;;;13.54
70050;BMP180;57391;51.306;22.680;2023-10-13T04:21:25;99788.00;;;13.60
70050;BMP180;57391;51.306;22.680;2023-10-13T04:24:12;99791.80;;;13.60
70050;BMP180;57391;51.306;22.680;2023-10-13T04:26:45;99792.80;;;13.60
70050;BMP180;57391;51.306;22.680;2023-10-13T04:29:33;99799.00;;;13.60
70050;BMP180;57391;51.306;22.680;2023-10-13T04:32:15;99784.60;;;13.62
70050;BMP180;57391;51.306;22.680;2023-10-13T04:34:59;99780.80;;;13.66
70050;BMP180;57391;51.306;22.680;2023-10-13T04:37:37;99794.00;;;13.60
70050;BMP180;57391;51.306;22.680;2023-10-13T04:40:18;99791.00;;;13.60
70050;BMP180;57391;51.306;22.680;2023-10-13T04:42:47;99798.20;;;13.60
70050;BMP180;57391;51.306;22.680;2023-10-13T04:45:17;99804.40;;;13.60
70050;BMP180;57391;51.306;22.680;2023-10-13T04:48:00;99806.80;;;13.60
70050;BMP180;57391;51.306;22.680;2023-10-13T04:50:48;99799.40;;;13.60
70050;BMP180;57391;51.306;22.680;2023-10-13T04:53:18;99794.40;;;13.60
70050;BMP180;57391;51.306;22.680;2023-10-13T04:55:58;99790.40;;;13.60
70050;BMP180;57391;51.306;22.680;2023-10-13T04:58:31;99791.20;;;13.60
70050;BMP180;57391;51.306;22.680;2023-10-13T05:01:01;99798.80;;;13.60
70050;BMP180;57391;51.306;22.680;2023-10-13T05:03:48;99799.40;;;13.60
70050;BMP180;57391;51.306;22.680;2023-10-13T05:06:34;99805.00;;;13.60
70050;BMP180;57391;51.306;22.680;2023-10-13T05:09:06;99806.80;;;13.60
70050;BMP180;57391;51.306;22.680;2023-10-13T05:11:52;99807.60;;;13.60
70050;BMP180;57391;51.306;22.680;2023-10-13T05:14:37;99801.00;;;13.60
70050;BMP180;57391;51.306;22.680;2023-10-13T05:17:23;99809.60;;;13.60
70050;BMP180;57391;51.306;22.680;2023-10-13T05:20:09;99812.20;;;13.60
70050;BMP180;57391;51.306;22.680;2023-10-13T05:22:54;99814.20;;;13.60
70050;BMP180;57391;51.306;22.680;2023-10-13T05:25:39;99817.80;;;13.60
70050;BMP180;57391;51.306;22.680;2023-10-13T05:28:24;99824.20;;;13.60
70050;BMP180;57391;51.306;22.680;2023-10-13T05:31:09;99821.00;;;13.70
70050;BMP180;57391;51.306;22.680;2023-10-13T05:33:54;99823.60;;;13.66
70050;BMP180;57391;51.306;22.680;2023-10-13T05:36:39;99826.40;;;13.60
70050;BMP180;57391;51.306;22.680;2023-10-13T05:39:24;99828.60;;;13.60
70050;BMP180;57391;51.306;22.680;2023-10-13T05:42:09;99831.60;;;13.60
70050;BMP180;57391;51.306;22.680;2023-10-13T05:44:54;99835.40;;;13.60
70050;BMP180;57391;51.306;22.680;2023-10-13T05:47:39;99844.00;;;13.62
70050;BMP180;57391;51.306;22.680;2023-10-13T05:50:13;99850.60;;;13.70
70050;BMP180;57391;51.306;22.680;2023-10-13T05:53:00;99854.40;;;13.70
70050;BMP180;57391;51.306;22.680;2023-10-13T05:55:29;99851.20;;;13.70
70050;BMP180;57391;51.306;22.680;2023-10-13T05:58:16;99853.40;;;13.76
70050;BMP180;57391;51.306;22.680;2023-10-13T06:01:01;99856.60;;;13.80
70050;BMP180;57391;51.306;22.680;2023-10-13T06:03:46;99866.60;;;13.80
70050;BMP180;57391;51.306;22.680;2023-10-13T06:06:31;99875.00;;;13.86
70050;BMP180;57391;51.306;22.680;2023-10-13T06:09:16;99873.40;;;13.84
70050;BMP180;57391;51.306;22.680;2023-10-13T06:12:01;99874.40;;;13.80
70050;BMP180;57391;51.306;22.680;2023-10-13T06:14:46;99881.80;;;13.80
70050;BMP180;57391;51.306;22.680;2023-10-13T06:17:32;99886.00;;;13.90
70050;BMP180;57391;51.306;22.680;2023-10-13T06:20:17;99895.40;;;13.90
70050;BMP180;57391;51.306;22.680;2023-10-13T06:23:02;99892.20;;;13.90
70050;BMP180;57391;51.306;22.680;2023-10-13T06:25:53;99888.80;;;13.90
70050;BMP180;57391;51.306;22.680;2023-10-13T06:28:39;99894.20;;;13.90
70050;BMP180;57391;51.306;22.680;2023-10-13T06:31:11;99900.60;;;13.90
70050;BMP180;57391;51.306;22.680;2023-10-13T06:33:52;99898.00;;;13.90
70050;BMP180;57391;51.306;22.680;2023-10-13T06:36:22;99896.20;;;13.90
70050;BMP180;57391;51.306;22.680;2023-10-13T06:38:48;99893.60;;;13.82
70050;BMP180;57391;51.306;22.680;2023-10-13T06:41:44;99897.00;;;13.80
70050;BMP180;57391;51.306;22.680;2023-10-13T06:44:11;99902.60;;;13.80
70050;BMP180;57391;51.306;22.680;2023-10-13T06:46:41;99896.60;;;13.82
70050;BMP180;57391;51.306;22.680;2023-10-13T06:49:09;99893.20;;;13.80
70050;BMP180;57391;51.306;22.680;2023-10-13T06:51:37;99896.60;;;13.80
70050;BMP180;57391;51.306;22.680;2023-10-13T06:54:07;99888.60;;;13.80
70050;BMP180;57391;51.306;22.680;2023-10-13T06:56:38;99895.20;;;13.80
70050;BMP180;57391;51.306;22.680;2023-10-13T06:59:06;99887.20;;;13.80
70050;BMP180;57391;51.306;22.680;2023-10-13T07:01:34;99889.20;;;13.80
70050;BMP180;57391;51.306;22.680;2023-10-13T07:04:08;99887.80;;;13.82
70050;BMP180;57391;51.306;22.680;2023-10-13T07:06:43;99888.40;;;13.90
70050;BMP180;57391;51.306;22.680;2023-10-13T07:09:17;99895.60;;;13.90
70050;BMP180;57391;51.306;22.680;2023-10-13T07:12:04;99899.40;;;13.90
70050;BMP180;57391;51.306;22.680;2023-10-13T07:14:47;99896.60;;;13.90
70050;BMP180;57391;51.306;22.680;2023-10-13T07:17:25;99904.20;;;13.90
70050;BMP180;57391;51.306;22.680;2023-10-13T07:19:53;99907.00;;;13.98
70050;BMP180;57391;51.306;22.680;2023-10-13T07:22:22;99907.20;;;14.00
70050;BMP180;57391;51.306;22.680;2023-10-13T07:24:50;99916.60;;;14.00
70050;BMP180;57391;51.306;22.680;2023-10-13T07:27:19;99911.00;;;14.10
70050;BMP180;57391;51.306;22.680;2023-10-13T07:29:55;99901.40;;;14.20
70050;BMP180;57391;51.306;22.680;2023-10-13T07:32:41;99893.60;;;14.20
70050;BMP180;57391;51.306;22.680;2023-10-13T07:35:14;99890.40;;;14.20
70050;BMP180;57391;51.306;22.680;2023-10-13T07:37:42;99890.80;;;14.20
70050;BMP180;57391;51.306;22.680;2023-10-13T07:40:09;99896.60;;;14.24
70050;BMP180;57391;51.306;22.680;2023-10-13T07:42:57;99897.00;;;14.30
70050;BMP180;57391;51.306;22.680;2023-10-13T07:45:27;99894.60;;;14.34
70050;BMP180;57391;51.306;22.680;2023-10-13T07:48:08;99896.00;;;14.40
70050;BMP180;57391;51.306;22.680;2023-10-13T07:51:02;99896.60;;;14.50
70050;BMP180;57391;51.306;22.680;2023-10-13T07:53:31;99891.60;;;14.50
70050;BMP180;57391;51.306;22.680;2023-10-13T07:56:07;99891.00;;;14.50
70050;BMP180;57391;51.306;22.680;2023-10-13T07:58:40;99884.20;;;14.50
70050;BMP180;57391;51.306;22.680;2023-10-13T08:01:19;99879.60;;;14.52
70050;BMP180;57391;51.306;22.680;2023-10-13T08:03:47;99878.40;;;14.58
70050;BMP180;57391;51.306;22.680;2023-10-13T08:06:16;99869.20;;;14.60
70050;BMP180;57391;51.306;22.680;2023-10-13T08:08:44;99877.60;;;14.60
70050;BMP180;57391;51.306;22.680;2023-10-13T08:11:17;99880.00;;;14.70
70050;BMP180;57391;51.306;22.680;2023-10-13T08:13:51;99887.60;;;14.70
70050;BMP180;57391;51.306;22.680;2023-10-13T08:16:23;99885.00;;;14.80
70050;BMP180;57391;51.306;22.680;2023-10-13T08:18:55;99878.20;;;14.80
70050;BMP180;57391;51.306;22.680;2023-10-13T08:21:22;99881.20;;;14.90
70050;BMP180;57391;51.306;22.680;2023-10-13T08:23:52;99878.20;;;15.00
70050;BMP180;57391;51.306;22.680;2023-10-13T08:26:24;99881.60;;;15.10
70050;BMP180;57391;51.306;22.680;2023-10-13T08:29:04;99880.60;;;15.20
70050;BMP180;57391;51.306;22.680;2023-10-13T08:31:51;99881.80;;;15.30
70050;BMP180;57391;51.306;22.680;2023-10-13T08:34:31;99878.40;;;15.30
70050;BMP180;57391;51.306;22.680;2023-10-13T08:37:29;99875.80;;;15.40
70050;BMP180;57391;51.306;22.680;2023-10-13T08:40:00;99878.00;;;15.50
70050;BMP180;57391;51.306;22.680;2023-10-13T08:42:38;99878.20;;;15.58
70050;BMP180;57391;51.306;22.680;2023-10-13T08:50:50;99880.80;;;15.70
70050;BMP180;57391;51.306;22.680;2023-10-13T08:56:06;99877.60;;;15.80
70050;BMP180;57391;51.306;22.680;2023-10-13T08:59:05;99879.40;;;16.00
70050;BMP180;57391;51.306;22.680;2023-10-13T09:01:35;99878.80;;;16.10
70050;BMP180;57391;51.306;22.680;2023-10-13T09:04:07;99877.00;;;16.20
70050;BMP180;57391;51.306;22.680;2023-10-13T09:06:58;99876.80;;;16.30
70050;BMP180;57391;51.306;22.680;2023-10-13T09:09:49;99881.40;;;16.40
70050;BMP180;57391;51.306;22.680;2023-10-13T09:12:22;99882.00;;;16.50
70050;BMP180;57391;51.306;22.680;2023-10-13T09:15:10;99882.80;;;16.60
70050;BMP180;57391;51.306;22.680;2023-10-13T09:17:48;99884.00;;;16.60
70050;BMP180;57391;51.306;22.680;2023-10-13T09:20:15;99878.20;;;16.64
70050;BMP180;57391;51.306;22.680;2023-10-13T09:22:56;99874.20;;;16.70
70050;BMP180;57391;51.306;22.680;2023-10-13T09:25:40;99876.00;;;16.80
70050;BMP180;57391;51.306;22.680;2023-10-13T09:28:28;99870.40;;;16.90
70050;BMP180;57391;51.306;22.680;2023-10-13T09:30:56;99868.60;;;16.90
70050;BMP180;57391;51.306;22.680;2023-10-13T09:33:26;99872.60;;;17.00
70050;BMP180;57391;51.306;22.680;2023-10-13T09:36:16;99869.80;;;17.10
70050;BMP180;57391;51.306;22.680;2023-10-13T09:38:44;99865.80;;;17.10
70050;BMP180;57391;51.306;22.680;2023-10-13T09:41:37;99863.20;;;17.12
70050;BMP180;57391;51.306;22.680;2023-10-13T09:44:06;99865.60;;;17.30
70050;BMP180;57391;51.306;22.680;2023-10-13T09:46:37;99865.40;;;17.40
70050;BMP180;57391;51.306;22.680;2023-10-13T09:49:14;99871.60;;;17.50
70050;BMP180;57391;51.306;22.680;2023-10-13T09:51:49;99868.80;;;17.50
70050;BMP180;57391;51.306;22.680;2023-10-13T09:54:28;99857.00;;;17.60
70050;BMP180;57391;51.306;22.680;2023-10-13T09:57:12;99859.00;;;17.70
70050;BMP180;57391;51.306;22.680;2023-10-13T10:00:00;99859.20;;;17.80
70050;BMP180;57391;51.306;22.680;2023-10-13T10:02:44;99860.80;;;17.90
70050;BMP180;57391;51.306;22.680;2023-10-13T10:05:11;99864.60;;;17.90
70050;BMP180;57391;51.306;22.680;2023-10-13T10:07:56;99860.00;;;18.00
70050;BMP180;57391;51.306;22.680;2023-10-13T10:13:35;99857.40;;;18.10
70050;BMP180;57391;51.306;22.680;2023-10-13T10:16:17;99852.00;;;18.20
70050;BMP180;57391;51.306;22.680;2023-10-13T10:19:00;99854.80;;;18.20
70050;BMP180;57391;51.306;22.680;2023-10-13T10:21:38;99853.00;;;18.20
70050;BMP180;57391;51.306;22.680;2023-10-13T10:24:22;99855.60;;;18.24
70050;BMP180;57391;51.306;22.680;2023-10-13T10:27:00;99852.80;;;18.20
70050;BMP180;57391;51.306;22.680;2023-10-13T10:29:27;99847.40;;;18.20
70050;BMP180;57391;51.306;22.680;2023-10-13T10:31:54;99843.60;;;18.20
70050;BMP180;57391;51.306;22.680;2023-10-13T10:34:30;99840.60;;;18.24
70050;BMP180;57391;51.306;22.680;2023-10-13T10:36:59;99834.20;;;18.30
70050;BMP180;57391;51.306;22.680;2023-10-13T10:39:36;99834.00;;;18.30
70050;BMP180;57391;51.306;22.680;2023-10-13T10:42:14;99831.40;;;18.40
70050;BMP180;57391;51.306;22.680;2023-10-13T10:44:50;99832.40;;;18.50
70050;BMP180;57391;51.306;22.680;2023-10-13T10:47:21;99824.00;;;18.60
70050;BMP180;57391;51.306;22.680;2023-10-13T10:49:58;99822.00;;;18.70
70050;BMP180;57391;51.306;22.680;2023-10-13T10:52:27;99814.00;;;18.90
70050;BMP180;57391;51.306;22.680;2023-10-13T10:55:04;99814.00;;;19.08
70050;BMP180;57391;51.306;22.680;2023-10-13T10:57:34;99807.80;;;19.18
70050;BMP180;57391;51.306;22.680;2023-10-13T11:00:21;99810.40;;;19.30
70050;BMP180;57391;51.306;22.680;2023-10-13T11:02:57;99807.80;;;19.40
70050;BMP180;57391;51.306;22.680;2023-10-13T11:05:24;99804.00;;;19.58
70050;BMP180;57391;51.306;22.680;2023-10-13T11:07:58;99797.20;;;19.76
70050;BMP180;57391;51.306;22.680;2023-10-13T11:10:26;99794.00;;;19.90
70050;BMP180;57391;51.306;22.680;2023-10-13T11:13:00;99791.80;;;20.10
70050;BMP180;57391;51.306;22.680;2023-10-13T11:15:44;99793.40;;;20.20
70050;BMP180;57391;51.306;22.680;2023-10-13T11:18:14;99792.20;;;20.20
70050;BMP180;57391;51.306;22.680;2023-10-13T11:20:55;99787.00;;;20.20
70050;BMP180;57391;51.306;22.680;2023-10-13T11:23:22;99787.40;;;20.22
70050;BMP180;57391;51.306;22.680;2023-10-13T11:25:59;99789.60;;;20.30
70050;BMP180;57391;51.306;22.680;2023-10-13T11:28:26;99788.20;;;20.30
70050;BMP180;57391;51.306;22.680;2023-10-13T11:30:59;99785.20;;;20.30
70050;BMP180;57391;51.306;22.680;2023-10-13T11:33:27;99780.60;;;20.30
70050;BMP180;57391;51.306;22.680;2023-10-13T11:35:56;99784.40;;;20.30
70050;BMP180;57391;51.306;22.680;2023-10-13T11:38:29;99782.00;;;20.40
70050;BMP180;57391;51.306;22.680;2023-10-13T11:41:09;99775.20;;;20.40
70050;BMP180;57391;51.306;22.680;2023-10-13T11:43:46;99781.80;;;20.50
70050;BMP180;57391;51.306;22.680;2023-10-13T11:49:03;99770.60;;;20.50
70050;BMP180;57391;51.306;22.680;2023-10-13T11:51:49;99768.80;;;20.50
70050;BMP180;57391;51.306;22.680;2023-10-13T11:54:22;99770.60;;;20.54
70050;BMP180;57391;51.306;22.680;2023-10-13T11:56:50;99767.20;;;20.58
70050;BMP180;57391;51.306;22.680;2023-10-13T11:59:16;99773.60;;;20.52
70050;BMP180;57391;51.306;22.680;2023-10-13T12:01:51;99772.80;;;20.50
70050;BMP180;57391;51.306;22.680;2023-10-13T12:04:38;99772.20;;;20.52
70050;BMP180;57391;51.306;22.680;2023-10-13T12:07:18;99767.20;;;20.60
70050;BMP180;57391;51.306;22.680;2023-10-13T12:09:50;99763.40;;;20.80
70050;BMP180;57391;51.306;22.680;2023-10-13T12:12:25;99763.20;;;20.90
70050;BMP180;57391;51.306;22.680;2023-10-13T12:14:55;99761.80;;;21.00
70050;BMP180;57391;51.306;22.680;2023-10-13T12:17:26;99761.40;;;21.10
70050;BMP180;57391;51.306;22.680;2023-10-13T12:20:04;99767.80;;;21.10
70050;BMP180;57391;51.306;22.680;2023-10-13T12:22:32;99761.40;;;21.10
70050;BMP180;57391;51.306;22.680;2023-10-13T12:25:03;99762.60;;;21.10
70050;BMP180;57391;51.306;22.680;2023-10-13T12:27:55;99761.80;;;21.10
70050;BMP180;57391;51.306;22.680;2023-10-13T12:30:33;99758.40;;;21.10
70050;BMP180;57391;51.306;22.680;2023-10-13T12:33:16;99755.20;;;21.10
70050;BMP180;57391;51.306;22.680;2023-10-13T12:36:04;99752.80;;;21.12
70050;BMP180;57391;51.306;22.680;2023-10-13T12:38:37;99746.60;;;21.16
70050;BMP180;57391;51.306;22.680;2023-10-13T12:41:20;99741.40;;;21.20
70050;BMP180;57391;51.306;22.680;2023-10-13T12:44:06;99736.60;;;21.36
70050;BMP180;57391;51.306;22.680;2023-10-13T12:46:52;99737.20;;;21.50
70050;BMP180;57391;51.306;22.680;2023-10-13T12:49:37;99734.60;;;21.50
70050;BMP180;57391;51.306;22.680;2023-10-13T12:52:08;99725.60;;;21.50
70050;BMP180;57391;51.306;22.680;2023-10-13T12:54:47;99720.60;;;21.60
70050;BMP180;57391;51.306;22.680;2023-10-13T12:57:28;99728.20;;;21.70
70050;BMP180;57391;51.306;22.680;2023-10-13T12:59:55;99728.80;;;21.62
70050;BMP180;57391;51.306;22.680;2023-10-13T13:02:25;99720.40;;;21.60
70050;BMP180;57391;51.306;22.680;2023-10-13T13:04:53;99719.40;;;21.56
70050;BMP180;57391;51.306;22.680;2023-10-13T13:07:41;99720.20;;;21.50
70050;BMP180;57391;51.306;22.680;2023-10-13T13:10:16;99716.40;;;21.54
70050;BMP180;57391;51.306;22.680;2023-10-13T13:12:43;99716.60;;;21.60
70050;BMP180;57391;51.306;22.680;2023-10-13T13:15:10;99713.00;;;21.70
70050;BMP180;57391;51.306;22.680;2023-10-13T13:17:38;99713.80;;;21.80
70050;BMP180;57391;51.306;22.680;2023-10-13T13:20:07;99710.60;;;21.90
70050;BMP180;57391;51.306;22.680;2023-10-13T13:22:38;99705.40;;;22.00
70050;BMP180;57391;51.306;22.680;2023-10-13T13:25:06;99703.20;;;22.00
70050;BMP180;57391;51.306;22.680;2023-10-13T13:27:36;99704.40;;;22.00
70050;BMP180;57391;51.306;22.680;2023-10-13T13:30:04;99705.60;;;22.00
70050;BMP180;57391;51.306;22.680;2023-10-13T13:32:40;99702.20;;;22.00
70050;BMP180;57391;51.306;22.680;2023-10-13T13:35:07;99698.40;;;22.00
70050;BMP180;57391;51.306;22.680;2023-10-13T13:37:35;99697.80;;;22.10
70050;BMP180;57391;51.306;22.680;2023-10-13T13:40:04;99687.00;;;22.00
70050;BMP180;57391;51.306;22.680;2023-10-13T13:42:45;99687.60;;;21.98
70050;BMP180;57391;51.306;22.680;2023-10-13T13:45:18;99680.60;;;21.90
70050;BMP180;57391;51.306;22.680;2023-10-13T13:47:49;99679.40;;;21.80
70050;BMP180;57391;51.306;22.680;2023-10-13T13:50:27;99674.60;;;21.70
70050;BMP180;57391;51.306;22.680;2023-10-13T13:52:57;99676.00;;;21.60
70050;BMP180;57391;51.306;22.680;2023-10-13T13:55:26;99669.20;;;21.50
70050;BMP180;57391;51.306;22.680;2023-10-13T13:57:58;99676.00;;;21.40
70050;BMP180;57391;51.306;22.680;2023-10-13T14:00:25;99680.60;;;21.30
70050;BMP180;57391;51.306;22.680;2023-10-13T14:03:05;99676.20;;;21.30
70050;BMP180;57391;51.306;22.680;2023-10-13T14:05:42;99668.20;;;21.20
70050;BMP180;57391;51.306;22.680;2023-10-13T14:08:09;99662.00;;;21.20
70050;BMP180;57391;51.306;22.680;2023-10-13T14:10:41;99656.00;;;21.20
70050;BMP180;57391;51.306;22.680;2023-10-13T14:13:26;99647.80;;;21.20
70050;BMP180;57391;51.306;22.680;2023-10-13T14:16:17;99647.20;;;21.10
70050;BMP180;57391;51.306;22.680;2023-10-13T14:18:51;99647.40;;;21.00
70050;BMP180;57391;51.306;22.680;2023-10-13T14:21:19;99654.60;;;20.90
70050;BMP180;57391;51.306;22.680;2023-10-13T14:23:46;99666.60;;;20.82
70050;BMP180;57391;51.306;22.680;2023-10-13T14:26:16;99659.60;;;20.78
70050;BMP180;57391;51.306;22.680;2023-10-13T14:28:52;99652.00;;;20.70
70050;BMP180;57391;51.306;22.680;2023-10-13T14:31:41;99662.20;;;20.60
70050;BMP180;57391;51.306;22.680;2023-10-13T14:34:12;99660.00;;;20.60
70050;BMP180;57391;51.306;22.680;2023-10-13T14:36:38;99653.40;;;20.56
70050;BMP180;57391;51.306;22.680;2023-10-13T14:39:08;99654.60;;;20.50
70050;BMP180;57391;51.306;22.680;2023-10-13T14:41:37;99654.00;;;20.50
70050;BMP180;57391;51.306;22.680;2023-10-13T14:44:14;99655.80;;;20.50
70050;BMP180;57391;51.306;22.680;2023-10-13T14:46:41;99654.60;;;20.40
70050;BMP180;57391;51.306;22.680;2023-10-13T14:49:18;99643.40;;;20.38
70050;BMP180;57391;51.306;22.680;2023-10-13T14:52:06;99648.40;;;20.30
70050;BMP180;57391;51.306;22.680;2023-10-13T14:54:33;99647.60;;;20.20
70050;BMP180;57391;51.306;22.680;2023-10-13T14:57:01;99650.60;;;20.20
70050;BMP180;57391;51.306;22.680;2023-10-13T14:59:30;99648.60;;;20.14